Time;durP1;ratioP1;P1;durP2;ratioP2;P2;SDS_P1;SDS_P2;PMS_P1;PMS_P2;Temp;Humidity;BMP_temperature;BMP_pressure;BME280_temperature;BME280_humidity;BME280_pressure;Samples;Min_cycle;Max_cycle;Signal;HPM_P1;HPM_P2
2023/09/21 00:00:36;;;;;;;11.27;5.85;;;;;;;;;;2594817;22;20087;-90
2023/09/21 00:01:38;;;;;;;6.47;5.32;;;;;;;;;;2598559;22;20282;-90
2023/09/21 00:02:44;;;;;;;7.97;5.43;;;;;;;;;;2598569;22;20453;-91
2023/09/21 00:03:45;;;;;;;7.40;5.63;;;;;;;;;;2582351;22;20000;-90
2023/09/21 00:04:45;;;;;;;7.47;5.97;;;;;;;;;;2581525;22;19996;-91
2023/09/21 00:05:47;;;;;;;8.15;6.10;;;;;;;;;;2593903;22;20291;-90
2023/09/21 00:06:50;;;;;;;7.22;5.93;;;;;;;;;;2594016;22;19996;-90
2023/09/21 00:07:50;;;;;;;9.70;6.03;;;;;;;;;;2581801;22;20377;-91
2023/09/21 00:08:53;;;;;;;9.43;5.50;;;;;;;;;;2581247;23;20020;-91
2023/09/21 00:09:54;;;;;;;11.27;5.60;;;;;;;;;;2594022;22;20022;-90
2023/09/21 00:10:54;;;;;;;8.13;6.30;;;;;;;;;;2581244;23;20004;-91
2023/09/21 00:11:55;;;;;;;8.23;6.07;;;;;;;;;;2597001;22;20344;-90
2023/09/21 00:12:55;;;;;;;8.25;5.60;;;;;;;;;;2610458;22;20082;-91
2023/09/21 00:13:56;;;;;;;8.30;5.57;;;;;;;;;;2593956;22;20007;-91
2023/09/21 00:14:58;;;;;;;6.15;4.90;;;;;;;;;;2593978;22;20083;-91
2023/09/21 00:16:00;;;;;;;9.77;5.38;;;;;;;;;;2609213;22;20069;-90
2023/09/21 00:17:00;;;;;;;10.50;5.82;;;;;;;;;;2609691;22;20074;-90
2023/09/21 00:18:01;;;;;;;7.43;5.65;;;;;;;;;;2593705;22;20008;-90
2023/09/21 00:19:06;;;;;;;9.02;6.07;;;;;;;;;;2587118;22;20539;-90
2023/09/21 00:20:11;;;;;;;9.23;5.80;;;;;;;;;;2593839;22;20075;-91
2023/09/21 00:21:12;;;;;;;9.18;5.75;;;;;;;;;;2143821;22;10175928;-90
2023/09/21 00:22:13;;;;;;;8.07;5.15;;;;;;;;;;2581491;23;20087;-90
2023/09/21 00:23:14;;;;;;;7.68;5.95;;;;;;;;;;2595356;22;20000;-90
2023/09/21 00:24:14;;;;;;;7.82;5.43;;;;;;;;;;2608920;22;20011;-90
2023/09/21 00:25:17;;;;;;;6.68;5.38;;;;;;;;;;2593262;22;20418;-90
2023/09/21 00:26:18;;;;;;;10.32;5.70;;;;;;;;;;2581567;22;20000;-91
2023/09/21 00:27:18;;;;;;;9.70;6.28;;;;;;;;;;2581378;23;20365;-91
2023/09/21 00:28:21;;;;;;;9.27;6.07;;;;;;;;;;2581312;23;20005;-91
2023/09/21 00:29:21;;;;;;;7.00;5.55;;;;;;;;;;2581586;22;20004;-91
2023/09/21 00:30:22;;;;;;;7.00;5.43;;;;;;;;;;2581152;23;20462;-91
2023/09/21 00:31:22;;;;;;;9.68;5.80;;;;;;;;;;2593941;22;20011;-91
2023/09/21 00:32:24;;;;;;;9.63;6.13;;;;;;;;;;2594665;22;20081;-92
2023/09/21 00:33:26;;;;;;;6.43;5.53;;;;;;;;;;2607968;22;19999;-91
2023/09/21 00:34:27;;;;;;;9.00;6.15;;;;;;;;;;2593726;22;20024;-91
2023/09/21 00:35:29;;;;;;;7.57;6.00;;;;;;;;;;2594057;22;20022;-91
2023/09/21 00:36:30;;;;;;;8.30;5.50;;;;;;;;;;2594293;22;20098;-91
2023/09/21 00:37:34;;;;;;;6.60;4.95;;;;;;;;;;2607833;22;20070;-91
2023/09/21 00:38:35;;;;;;;7.28;5.00;;;;;;;;;;2611567;22;20070;-91
2023/09/21 00:39:35;;;;;;;7.82;5.95;;;;;;;;;;2593887;22;19999;-90
2023/09/21 00:40:40;;;;;;;7.18;6.03;;;;;;;;;;2593990;22;19991;-91
2023/09/21 00:41:40;;;;;;;7.25;5.65;;;;;;;;;;2598444;22;20059;-90
2023/09/21 00:42:41;;;;;;;8.77;6.13;;;;;;;;;;2610663;22;19991;-90
2023/09/21 00:43:41;;;;;;;9.98;6.07;;;;;;;;;;2611022;22;19991;-91
2023/09/21 00:44:42;;;;;;;9.05;6.22;;;;;;;;;;2593570;22;20412;-90
2023/09/21 00:45:50;;;;;;;8.75;5.60;;;;;;;;;;2597643;22;19984;-91
2023/09/21 00:46:51;;;;;;;8.85;5.60;;;;;;;;;;2594004;22;19996;-90
2023/09/21 00:47:52;;;;;;;6.85;5.40;;;;;;;;;;2581194;23;20007;-90
2023/09/21 00:48:53;;;;;;;7.93;6.00;;;;;;;;;;2581156;22;20016;-90
2023/09/21 00:49:54;;;;;;;7.05;5.78;;;;;;;;;;2596684;22;20592;-90
2023/09/21 00:50:57;;;;;;;8.43;5.68;;;;;;;;;;2610495;22;20029;-90
2023/09/21 00:51:58;;;;;;;9.35;5.55;;;;;;;;;;2593827;22;20449;-91
2023/09/21 00:52:59;;;;;;;7.55;5.80;;;;;;;;;;2594644;22;20091;-90
2023/09/21 00:54:06;;;;;;;7.43;4.95;;;;;;;;;;2597713;22;20000;-90
2023/09/21 00:55:11;;;;;;;8.13;5.07;;;;;;;;;;2609854;22;20086;-90
2023/09/21 00:56:13;;;;;;;7.95;5.60;;;;;;;;;;2593877;22;20007;-91
2023/09/21 00:57:13;;;;;;;7.28;5.03;;;;;;;;;;2593938;22;20011;-90
2023/09/21 00:58:14;;;;;;;9.82;5.72;;;;;;;;;;2595263;22;20455;-91
2023/09/21 00:59:15;;;;;;;9.18;5.82;;;;;;;;;;2606586;22;20385;-90
2023/09/21 01:00:18;;;;;;;7.22;6.13;;;;;;;;;;2607816;22;20036;-91
2023/09/21 01:01:22;;;;;;;6.95;5.30;;;;;;;;;;2609695;22;19999;-90
2023/09/21 01:02:23;;;;;;;8.93;5.32;;;;;;;;;;2596740;22;20030;-90
2023/09/21 01:03:25;;;;;;;8.02;5.57;;;;;;;;;;2584101;23;20042;-91
2023/09/21 01:04:26;;;;;;;13.10;5.93;;;;;;;;;;2595280;22;20003;-90
2023/09/21 01:05:26;;;;;;;8.07;5.50;;;;;;;;;;2608087;22;19999;-90
2023/09/21 01:06:27;;;;;;;6.72;5.38;;;;;;;;;;2594037;22;20011;-91
2023/09/21 01:07:29;;;;;;;6.53;5.82;;;;;;;;;;2580974;23;20046;-91
2023/09/21 01:08:29;;;;;;;7.82;5.35;;;;;;;;;;2593708;22;20018;-91
2023/09/21 01:09:30;;;;;;;8.05;5.60;;;;;;;;;;2607182;22;20049;-91
2023/09/21 01:10:33;;;;;;;8.75;5.78;;;;;;;;;;2607575;22;20010;-91
2023/09/21 01:11:37;;;;;;;6.63;5.22;;;;;;;;;;2593949;22;20113;-91
2023/09/21 01:12:38;;;;;;;7.22;5.43;;;;;;;;;;2598692;22;19995;-91
2023/09/21 01:13:38;;;;;;;7.32;5.15;;;;;;;;;;2593927;22;20010;-91
2023/09/21 01:14:39;;;;;;;7.03;5.35;;;;;;;;;;2581165;23;20004;-91
2023/09/21 01:15:46;;;;;;;8.00;5.50;;;;;;;;;;2580915;23;20011;-91
2023/09/21 01:16:47;;;;;;;7.45;5.90;;;;;;;;;;2582245;22;20007;-90
2023/09/21 01:17:47;;;;;;;8.68;5.45;;;;;;;;;;2593855;22;20038;-90
2023/09/21 01:18:52;;;;;;;8.93;5.25;;;;;;;;;;2152174;23;10001342;-89
2023/09/21 01:19:53;;;;;;;6.78;5.40;;;;;;;;;;2597832;22;20235;-90
2023/09/21 01:21:00;;;;;;;8.27;4.72;;;;;;;;;;2594087;22;20437;-90
2023/09/21 01:22:13;;;;;;;6.35;5.03;;;;;;;;;;2597876;22;20004;-91
2023/09/21 01:23:19;;;;;;;9.07;5.82;;;;;;;;;;2594208;22;20173;-90
2023/09/21 01:24:23;;;;;;;6.10;5.13;;;;;;;;;;2596772;22;20070;-90
2023/09/21 01:25:23;;;;;;;6.90;5.22;;;;;;;;;;2593784;22;20003;-90
2023/09/21 01:26:24;;;;;;;8.95;5.03;;;;;;;;;;2593457;22;20083;-90
2023/09/21 01:27:24;;;;;;;7.00;5.50;;;;;;;;;;2593687;22;20090;-91
2023/09/21 01:28:27;;;;;;;6.25;5.00;;;;;;;;;;2607126;22;20007;-90
2023/09/21 01:29:30;;;;;;;7.57;5.32;;;;;;;;;;2593660;22;20008;-90
2023/09/21 01:30:30;;;;;;;6.50;5.18;;;;;;;;;;2581075;22;20400;-90
2023/09/21 01:31:30;;;;;;;6.97;5.65;;;;;;;;;;2580940;23;20008;-90
2023/09/21 01:32:31;;;;;;;7.97;5.50;;;;;;;;;;2593522;22;20015;-91
2023/09/21 01:33:33;;;;;;;8.13;5.57;;;;;;;;;;2593783;22;20007;-90
2023/09/21 01:34:36;;;;;;;6.20;5.18;;;;;;;;;;2593361;22;20008;-91
2023/09/21 01:35:37;;;;;;;8.95;4.57;;;;;;;;;;2611043;22;20043;-90
2023/09/21 01:36:37;;;;;;;7.03;5.07;;;;;;;;;;2611362;22;20014;-90
2023/09/21 01:37:38;;;;;;;7.38;5.43;;;;;;;;;;2593464;22;20003;-91
2023/09/21 01:38:39;;;;;;;7.45;5.65;;;;;;;;;;2597416;22;20029;-90
2023/09/21 01:39:40;;;;;;;5.28;4.40;;;;;;;;;;2610906;22;20024;-90
2023/09/21 01:40:42;;;;;;;5.70;5.10;;;;;;;;;;2593701;22;20060;-91
2023/09/21 01:41:43;;;;;;;7.68;5.40;;;;;;;;;;2597344;22;20433;-91
2023/09/21 01:42:48;;;;;;;7.90;5.15;;;;;;;;;;2593826;22;20023;-90
2023/09/21 01:43:49;;;;;;;7.78;5.50;;;;;;;;;;2597887;22;19995;-90
2023/09/21 01:44:49;;;;;;;9.48;5.63;;;;;;;;;;2593639;22;19996;-90
2023/09/21 01:45:50;;;;;;;7.45;5.00;;;;;;;;;;2580835;23;20004;-90
2023/09/21 01:46:50;;;;;;;5.88;4.57;;;;;;;;;;2596805;22;20136;-90
2023/09/21 01:47:50;;;;;;;6.82;5.13;;;;;;;;;;2593663;22;20086;-90
2023/09/21 01:48:51;;;;;;;6.60;4.95;;;;;;;;;;2596811;22;19996;-90
2023/09/21 01:49:52;;;;;;;7.22;5.35;;;;;;;;;;2610160;22;19991;-89
2023/09/21 01:50:57;;;;;;;7.55;5.07;;;;;;;;;;2593887;22;20012;-90
2023/09/21 01:51:58;;;;;;;6.55;5.80;;;;;;;;;;2594305;22;19995;-89
2023/09/21 01:52:59;;;;;;;5.70;4.68;;;;;;;;;;2593706;22;20087;-91
2023/09/21 01:53:59;;;;;;;9.48;5.72;;;;;;;;;;2593638;22;20053;-91
2023/09/21 01:54:59;;;;;;;6.88;5.22;;;;;;;;;;2593488;22;20492;-90
2023/09/21 01:56:00;;;;;;;8.40;4.68;;;;;;;;;;2581052;23;19996;-90
2023/09/21 01:57:00;;;;;;;8.80;5.53;;;;;;;;;;2596044;22;20000;-89
2023/09/21 01:58:02;;;;;;;6.50;5.38;;;;;;;;;;2593439;22;20065;-90
2023/09/21 01:59:03;;;;;;;7.20;4.88;;;;;;;;;;2580819;22;20073;-90
2023/09/21 02:00:21;;;;;;;7.88;5.65;;;;;;;;;;2581193;22;20019;-90
2023/09/21 02:01:22;;;;;;;5.85;4.57;;;;;;;;;;2597139;22;19999;-90
2023/09/21 02:02:23;;;;;;;7.68;4.78;;;;;;;;;;2607203;22;20379;-90
2023/09/21 02:03:27;;;;;;;9.57;5.63;;;;;;;;;;2593713;22;20082;-90
2023/09/21 02:04:28;;;;;;;7.30;5.38;;;;;;;;;;2593601;22;20008;-90
2023/09/21 02:05:28;;;;;;;5.90;5.30;;;;;;;;;;2594192;22;20465;-89
2023/09/21 02:06:29;;;;;;;7.05;5.35;;;;;;;;;;2593997;22;20003;-91
2023/09/21 02:07:30;;;;;;;8.13;5.30;;;;;;;;;;2595216;22;20031;-90
2023/09/21 02:08:31;;;;;;;7.15;5.40;;;;;;;;;;2607848;22;20069;-90
2023/09/21 02:09:34;;;;;;;7.80;5.60;;;;;;;;;;2594680;22;20067;-90
2023/09/21 02:10:36;;;;;;;5.90;4.97;;;;;;;;;;2599290;22;20019;-90
2023/09/21 02:11:36;;;;;;;8.10;5.65;;;;;;;;;;2597162;22;20154;-90
2023/09/21 02:12:38;;;;;;;10.13;4.80;;;;;;;;;;2593859;22;20007;-90
2023/09/21 02:13:38;;;;;;;7.40;5.03;;;;;;;;;;2581226;22;20042;-90
2023/09/21 02:14:39;;;;;;;8.77;5.55;;;;;;;;;;2581200;23;19996;-90
2023/09/21 02:15:40;;;;;;;7.32;4.88;;;;;;;;;;2581253;22;20035;-90
2023/09/21 02:16:40;;;;;;;6.40;5.50;;;;;;;;;;2597418;22;20429;-90
2023/09/21 02:17:41;;;;;;;5.45;4.70;;;;;;;;;;2606121;22;20499;-90
2023/09/21 02:18:43;;;;;;;6.07;5.05;;;;;;;;;;2610491;22;19991;-90
2023/09/21 02:19:44;;;;;;;6.85;4.97;;;;;;;;;;2593703;22;20003;-91
2023/09/21 02:20:49;;;;;;;7.25;5.55;;;;;;;;;;2597143;22;20449;-90
2023/09/21 02:21:50;;;;;;;7.03;5.18;;;;;;;;;;2612682;22;19994;-90
2023/09/21 02:22:53;;;;;;;8.27;5.80;;;;;;;;;;2622600;22;20006;-90
2023/09/21 02:23:55;;;;;;;7.50;4.80;;;;;;;;;;942920;22;10022019;-90
2023/09/21 02:24:57;;;;;;;9.82;5.22;;;;;;;;;;2210031;22;10176178;-91
2023/09/21 02:25:57;;;;;;;6.95;5.25;;;;;;;;;;2608981;22;20225;-91
2023/09/21 02:26:58;;;;;;;9.35;5.55;;;;;;;;;;2606214;22;20036;-90
2023/09/21 02:27:59;;;;;;;6.93;5.40;;;;;;;;;;2606430;22;20008;-90
2023/09/21 02:29:01;;;;;;;7.97;4.88;;;;;;;;;;2593765;22;20055;-91
2023/09/21 02:30:01;;;;;;;7.75;5.97;;;;;;;;;;2594003;22;20000;-91
2023/09/21 02:31:02;;;;;;;7.50;5.88;;;;;;;;;;2586729;22;20004;-90
2023/09/21 02:32:03;;;;;;;7.72;5.57;;;;;;;;;;2596294;22;20053;-90
2023/09/21 02:33:07;;;;;;;8.25;5.28;;;;;;;;;;2594286;22;20014;-90
2023/09/21 02:34:08;;;;;;;9.20;4.72;;;;;;;;;;2582191;22;20462;-91
2023/09/21 02:35:14;;;;;;;8.05;5.68;;;;;;;;;;2581271;22;20012;-90
2023/09/21 02:36:19;;;;;;;8.25;5.25;;;;;;;;;;2596446;22;20022;-91
2023/09/21 02:37:20;;;;;;;7.43;5.90;;;;;;;;;;2608705;22;20057;-91
2023/09/21 02:38:21;;;;;;;7.55;5.25;;;;;;;;;;2593972;22;20030;-90
2023/09/21 02:39:21;;;;;;;8.38;5.70;;;;;;;;;;2581318;23;20004;-91
2023/09/21 02:40:23;;;;;;;7.95;5.70;;;;;;;;;;2594712;22;20012;-91
2023/09/21 02:41:23;;;;;;;7.95;4.63;;;;;;;;;;2594004;22;20010;-90
2023/09/21 02:42:25;;;;;;;6.78;5.70;;;;;;;;;;2581109;23;20004;-91
2023/09/21 02:43:26;;;;;;;7.88;5.30;;;;;;;;;;2594358;22;19999;-91
2023/09/21 02:44:27;;;;;;;7.20;5.13;;;;;;;;;;2608775;22;20079;-91
2023/09/21 02:45:29;;;;;;;9.23;5.82;;;;;;;;;;2594476;22;20282;-90
2023/09/21 02:46:30;;;;;;;8.45;5.63;;;;;;;;;;2594459;22;20007;-91
2023/09/21 02:47:30;;;;;;;7.28;5.13;;;;;;;;;;2594528;22;20087;-91
2023/09/21 02:48:31;;;;;;;7.88;5.60;;;;;;;;;;2609926;22;20090;-89
2023/09/21 02:49:31;;;;;;;8.70;5.78;;;;;;;;;;2596026;22;20048;-91
2023/09/21 02:50:32;;;;;;;7.05;4.90;;;;;;;;;;2595221;22;20011;-90
2023/09/21 02:51:32;;;;;;;8.25;5.63;;;;;;;;;;2581825;23;20101;-90
2023/09/21 02:52:33;;;;;;;8.35;5.63;;;;;;;;;;2598665;22;20023;-90
2023/09/21 02:53:34;;;;;;;9.02;5.22;;;;;;;;;;2594646;22;20426;-90
2023/09/21 02:54:34;;;;;;;6.82;5.47;;;;;;;;;;2581693;23;20494;-90
2023/09/21 02:55:36;;;;;;;9.68;5.28;;;;;;;;;;2581609;23;20422;-90
2023/09/21 02:56:37;;;;;;;8.77;5.38;;;;;;;;;;2594582;22;20037;-91
2023/09/21 02:57:37;;;;;;;9.10;5.53;;;;;;;;;;2594307;22;20086;-91
2023/09/21 02:58:40;;;;;;;6.50;5.13;;;;;;;;;;2594644;22;20456;-91
2023/09/21 02:59:41;;;;;;;7.00;4.82;;;;;;;;;;2594575;22;20453;-91
2023/09/21 03:00:44;;;;;;;10.07;5.60;;;;;;;;;;2581932;23;19992;-91
2023/09/21 03:01:45;;;;;;;8.35;5.63;;;;;;;;;;2582524;22;19996;-92
2023/09/21 03:02:46;;;;;;;7.60;5.43;;;;;;;;;;2597943;22;19991;-91
2023/09/21 03:03:46;;;;;;;7.32;5.20;;;;;;;;;;2594647;22;20602;-91
2023/09/21 03:04:48;;;;;;;8.52;5.70;;;;;;;;;;2581849;23;19996;-91
2023/09/21 03:05:51;;;;;;;6.90;5.25;;;;;;;;;;2582231;22;19996;-91
2023/09/21 03:06:54;;;;;;;8.35;5.82;;;;;;;;;;2582321;22;19996;-91
2023/09/21 03:07:55;;;;;;;9.10;5.65;;;;;;;;;;2582235;22;20031;-91
2023/09/21 03:08:55;;;;;;;6.28;4.80;;;;;;;;;;2581985;22;20171;-91
2023/09/21 03:09:56;;;;;;;7.30;5.20;;;;;;;;;;2596952;22;20437;-91
2023/09/21 03:10:57;;;;;;;10.07;5.85;;;;;;;;;;2594511;22;20520;-90
2023/09/21 03:11:58;;;;;;;7.50;5.65;;;;;;;;;;2597023;22;19999;-91
2023/09/21 03:12:59;;;;;;;9.30;6.55;;;;;;;;;;2610712;22;20006;-91
2023/09/21 03:14:03;;;;;;;9.50;5.20;;;;;;;;;;2610519;22;20000;-91
2023/09/21 03:15:07;;;;;;;10.27;5.35;;;;;;;;;;2610307;22;20003;-91
2023/09/21 03:16:12;;;;;;;7.90;5.20;;;;;;;;;;2594330;22;20012;-90
2023/09/21 03:17:14;;;;;;;7.20;5.25;;;;;;;;;;2596905;22;20038;-90
2023/09/21 03:18:16;;;;;;;8.38;5.78;;;;;;;;;;2608039;22;19999;-90
2023/09/21 03:19:16;;;;;;;10.38;5.80;;;;;;;;;;2594822;22;20011;-90
2023/09/21 03:20:32;;;;;;;7.80;5.07;;;;;;;;;;2581733;23;20139;-91
2023/09/21 03:21:34;;;;;;;7.10;5.38;;;;;;;;;;2597852;22;19999;-91
2023/09/21 03:22:34;;;;;;;9.45;6.22;;;;;;;;;;2594786;22;20034;-91
2023/09/21 03:23:34;;;;;;;8.23;5.78;;;;;;;;;;2581641;23;19996;-92
2023/09/21 03:24:39;;;;;;;9.23;5.63;;;;;;;;;;2581818;23;20007;-91
2023/09/21 03:25:44;;;;;;;9.25;6.13;;;;;;;;;;2595251;22;19983;-90
2023/09/21 03:26:46;;;;;;;10.13;6.15;;;;;;;;;;2594434;22;20129;-92
2023/09/21 03:27:49;;;;;;;7.90;6.00;;;;;;;;;;2581753;22;20467;-92
2023/09/21 03:28:50;;;;;;;10.32;6.13;;;;;;;;;;2598206;22;19992;-91
2023/09/21 03:29:50;;;;;;;10.60;5.28;;;;;;;;;;2594437;22;20433;-91
2023/09/21 03:30:53;;;;;;;6.74;5.88;;;;;;;;;;2149128;22;10287142;-92
2023/09/21 03:31:55;;;;;;;8.65;6.00;;;;;;;;;;2597762;22;20042;-91
2023/09/21 03:32:55;;;;;;;9.23;6.30;;;;;;;;;;2594416;22;20106;-91
2023/09/21 03:33:56;;;;;;;8.18;5.40;;;;;;;;;;2596843;22;20004;-91
2023/09/21 03:34:56;;;;;;;9.13;6.15;;;;;;;;;;2594104;22;20502;-92
2023/09/21 03:35:59;;;;;;;7.65;5.30;;;;;;;;;;2597391;22;20003;-91
2023/09/21 03:37:00;;;;;;;8.40;6.30;;;;;;;;;;2597416;22;20003;-91
2023/09/21 03:38:00;;;;;;;7.70;6.25;;;;;;;;;;2582346;23;20011;-91
2023/09/21 03:39:08;;;;;;;7.63;5.47;;;;;;;;;;2594394;22;20042;-90
2023/09/21 03:40:13;;;;;;;8.73;5.95;;;;;;;;;;2583248;22;20054;-92
2023/09/21 03:41:15;;;;;;;7.60;4.90;;;;;;;;;;2582907;22;20000;-91
2023/09/21 03:42:15;;;;;;;6.65;5.07;;;;;;;;;;2582056;22;20007;-90
2023/09/21 03:43:16;;;;;;;9.68;5.53;;;;;;;;;;2594716;22;20113;-91
2023/09/21 03:44:16;;;;;;;9.85;6.43;;;;;;;;;;2595192;22;20019;-90
2023/09/21 03:45:20;;;;;;;9.00;5.93;;;;;;;;;;2582047;22;20402;-90
2023/09/21 03:46:23;;;;;;;8.10;5.65;;;;;;;;;;2581960;22;20464;-91
2023/09/21 03:47:23;;;;;;;7.22;5.70;;;;;;;;;;2594277;22;20007;-91
2023/09/21 03:48:23;;;;;;;7.65;5.50;;;;;;;;;;2594408;22;20381;-91
2023/09/21 03:49:24;;;;;;;7.40;5.80;;;;;;;;;;2595079;22;20007;-92
2023/09/21 03:50:27;;;;;;;9.70;5.40;;;;;;;;;;2594256;22;20008;-89
2023/09/21 03:51:29;;;;;;;7.70;5.47;;;;;;;;;;2594486;22;20008;-90
2023/09/21 03:52:31;;;;;;;6.68;5.53;;;;;;;;;;2582016;22;20008;-89
2023/09/21 03:53:33;;;;;;;9.15;5.88;;;;;;;;;;2581678;22;20081;-89
2023/09/21 03:54:34;;;;;;;7.85;6.38;;;;;;;;;;2598296;22;20006;-91
2023/09/21 03:55:35;;;;;;;7.22;5.95;;;;;;;;;;2611419;22;20337;-91
2023/09/21 03:56:36;;;;;;;8.77;6.00;;;;;;;;;;2594056;22;20042;-90
2023/09/21 03:57:37;;;;;;;7.63;6.43;;;;;;;;;;2598279;22;20364;-89
2023/09/21 03:58:38;;;;;;;9.07;5.97;;;;;;;;;;2598116;22;20081;-90
2023/09/21 03:59:39;;;;;;;10.23;6.65;;;;;;;;;;2594015;22;20026;-90
2023/09/21 04:00:41;;;;;;;10.95;6.35;;;;;;;;;;2598197;22;20492;-90
2023/09/21 04:01:42;;;;;;;11.05;6.07;;;;;;;;;;2593833;22;20487;-89
2023/09/21 04:02:45;;;;;;;10.20;6.78;;;;;;;;;;2594177;22;19996;-91
2023/09/21 04:03:45;;;;;;;10.07;5.82;;;;;;;;;;2581586;22;20003;-90
2023/09/21 04:04:50;;;;;;;8.70;6.10;;;;;;;;;;2599990;22;20041;-90
2023/09/21 04:05:51;;;;;;;8.25;5.63;;;;;;;;;;2596535;22;19999;-89
2023/09/21 04:06:53;;;;;;;8.68;5.97;;;;;;;;;;2598156;22;20019;-90
2023/09/21 04:07:54;;;;;;;12.80;6.35;;;;;;;;;;2596864;22;20461;-90
2023/09/21 04:08:55;;;;;;;9.30;6.20;;;;;;;;;;2581782;23;20004;-90
2023/09/21 04:09:55;;;;;;;11.88;6.55;;;;;;;;;;2594149;22;20004;-90
2023/09/21 04:10:59;;;;;;;9.25;6.63;;;;;;;;;;2581799;23;20035;-90
2023/09/21 04:12:00;;;;;;;10.35;5.75;;;;;;;;;;2597878;22;20000;-89
2023/09/21 04:13:00;;;;;;;7.72;5.75;;;;;;;;;;2595560;22;20087;-91
2023/09/21 04:14:03;;;;;;;10.13;6.00;;;;;;;;;;2583082;23;20004;-90
2023/09/21 04:15:03;;;;;;;12.85;6.65;;;;;;;;;;2598343;22;20008;-89
2023/09/21 04:16:05;;;;;;;9.93;6.28;;;;;;;;;;2611665;22;20286;-89
2023/09/21 04:17:06;;;;;;;7.63;5.95;;;;;;;;;;2607173;22;20014;-90
2023/09/21 04:18:09;;;;;;;9.82;6.55;;;;;;;;;;2594643;22;20044;-91
2023/09/21 04:19:10;;;;;;;9.10;6.13;;;;;;;;;;2582317;22;20008;-89
2023/09/21 04:20:12;;;;;;;14.23;6.47;;;;;;;;;;2581848;22;20058;-92
2023/09/21 04:21:13;;;;;;;9.52;6.57;;;;;;;;;;2582132;22;20004;-92
2023/09/21 04:22:13;;;;;;;9.40;6.68;;;;;;;;;;2581943;23;20019;-91
2023/09/21 04:23:14;;;;;;;8.38;5.60;;;;;;;;;;2594424;22;20430;-92
2023/09/21 04:24:14;;;;;;;9.50;6.07;;;;;;;;;;2581737;23;20082;-92
2023/09/21 04:25:16;;;;;;;8.75;6.72;;;;;;;;;;2594396;22;20314;-90
2023/09/21 04:26:17;;;;;;;10.38;6.10;;;;;;;;;;2594477;22;20476;-91
2023/09/21 04:27:17;;;;;;;11.45;6.82;;;;;;;;;;2594529;22;20085;-92
2023/09/21 04:28:18;;;;;;;14.23;7.30;;;;;;;;;;2594178;22;20083;-90
2023/09/21 04:29:18;;;;;;;9.40;6.22;;;;;;;;;;2581667;23;20452;-90
2023/09/21 04:30:23;;;;;;;9.98;6.53;;;;;;;;;;2581923;23;20004;-91
2023/09/21 04:31:23;;;;;;;7.80;5.95;;;;;;;;;;2582154;22;20383;-89
2023/09/21 04:32:24;;;;;;;10.45;6.82;;;;;;;;;;2581944;23;20066;-90
2023/09/21 04:33:24;;;;;;;9.63;5.82;;;;;;;;;;2582525;23;20399;-90
2023/09/21 04:34:24;;;;;;;7.88;6.28;;;;;;;;;;2582307;23;20030;-90
2023/09/21 04:35:25;;;;;;;10.10;6.30;;;;;;;;;;2595360;22;20030;-89
2023/09/21 04:36:25;;;;;;;8.93;5.55;;;;;;;;;;2595043;22;19999;-90
2023/09/21 04:37:26;;;;;;;10.63;6.63;;;;;;;;;;2594549;22;20445;-90
2023/09/21 04:38:27;;;;;;;8.02;5.97;;;;;;;;;;2606874;22;20045;-90
2023/09/21 04:39:27;;;;;;;10.80;6.97;;;;;;;;;;2594213;22;20062;-90
2023/09/21 04:40:28;;;;;;;10.23;6.53;;;;;;;;;;2594856;22;20007;-90
2023/09/21 04:41:30;;;;;;;11.13;6.25;;;;;;;;;;2594018;22;20046;-91
2023/09/21 04:42:32;;;;;;;7.95;6.63;;;;;;;;;;2581504;22;20012;-90
2023/09/21 04:43:33;;;;;;;10.27;5.68;;;;;;;;;;2582061;22;20066;-90
2023/09/21 04:44:33;;;;;;;7.43;6.03;;;;;;;;;;2594723;22;20373;-91
2023/09/21 04:45:34;;;;;;;9.27;5.95;;;;;;;;;;2594825;22;20053;-91
2023/09/21 04:46:36;;;;;;;9.55;5.80;;;;;;;;;;2581760;22;20066;-91
2023/09/21 04:47:38;;;;;;;9.25;5.95;;;;;;;;;;2598513;22;19999;-91
2023/09/21 04:48:39;;;;;;;11.55;6.38;;;;;;;;;;2594811;22;20686;-91
2023/09/21 04:49:40;;;;;;;9.98;7.30;;;;;;;;;;2581697;22;20000;-90
2023/09/21 04:50:42;;;;;;;10.98;7.22;;;;;;;;;;2597786;22;19992;-90
2023/09/21 04:51:43;;;;;;;11.80;6.50;;;;;;;;;;2611628;22;20330;-90
2023/09/21 04:52:44;;;;;;;8.35;7.25;;;;;;;;;;2611720;22;20077;-90
2023/09/21 04:53:45;;;;;;;7.45;6.60;;;;;;;;;;2611215;22;19991;-90
2023/09/21 04:54:49;;;;;;;13.18;6.85;;;;;;;;;;2594120;22;20505;-90
2023/09/21 04:55:49;;;;;;;8.25;6.90;;;;;;;;;;2582153;22;20084;-90
2023/09/21 04:56:51;;;;;;;11.98;7.35;;;;;;;;;;2581334;23;19996;-90
2023/09/21 04:57:52;;;;;;;12.68;7.03;;;;;;;;;;2581615;22;19992;-90
2023/09/21 04:58:55;;;;;;;10.75;6.82;;;;;;;;;;2593963;22;20397;-90
2023/09/21 04:59:56;;;;;;;11.88;7.25;;;;;;;;;;2597242;22;20004;-91
2023/09/21 05:00:56;;;;;;;10.73;6.75;;;;;;;;;;2609303;22;20003;-91
2023/09/21 05:01:57;;;;;;;8.65;7.00;;;;;;;;;;2594062;22;20073;-92
2023/09/21 05:02:57;;;;;;;12.18;7.28;;;;;;;;;;2581366;23;20004;-91
2023/09/21 05:03:57;;;;;;;11.50;7.18;;;;;;;;;;2596421;22;20411;-91
2023/09/21 05:04:59;;;;;;;9.20;7.57;;;;;;;;;;2593821;22;20039;-91
2023/09/21 05:05:59;;;;;;;12.45;7.47;;;;;;;;;;2596536;22;20400;-91
2023/09/21 05:07:01;;;;;;;11.18;7.30;;;;;;;;;;2609962;22;20031;-92
2023/09/21 05:08:03;;;;;;;8.73;7.82;;;;;;;;;;2609583;22;20003;-92
2023/09/21 05:09:04;;;;;;;8.85;6.13;;;;;;;;;;2609566;22;20109;-91
2023/09/21 05:10:11;;;;;;;10.32;7.20;;;;;;;;;;2385888;22;10000734;-91
2023/09/21 05:11:12;;;;;;;8.10;5.97;;;;;;;;;;2593867;22;20275;-91
2023/09/21 05:12:13;;;;;;;9.13;7.40;;;;;;;;;;2581499;23;20012;-91
2023/09/21 05:13:13;;;;;;;11.00;7.25;;;;;;;;;;2581202;22;20511;-92
2023/09/21 05:14:14;;;;;;;10.20;7.40;;;;;;;;;;2581346;23;20008;-92
2023/09/21 05:15:15;;;;;;;13.52;7.97;;;;;;;;;;2581434;23;20036;-92
2023/09/21 05:16:18;;;;;;;7.32;6.53;;;;;;;;;;2595117;22;20003;-91
2023/09/21 05:17:18;;;;;;;10.65;7.43;;;;;;;;;;2594187;22;20296;-91
2023/09/21 05:18:18;;;;;;;11.50;8.25;;;;;;;;;;2581405;23;20107;-91
2023/09/21 05:19:20;;;;;;;9.98;6.82;;;;;;;;;;2594778;22;20015;-90
2023/09/21 05:20:21;;;;;;;12.10;7.75;;;;;;;;;;2608572;22;20424;-90
2023/09/21 05:21:21;;;;;;;10.50;7.13;;;;;;;;;;2593944;22;20023;-90
2023/09/21 05:22:22;;;;;;;11.23;7.57;;;;;;;;;;2594890;22;20003;-90
2023/09/21 05:23:22;;;;;;;12.07;7.32;;;;;;;;;;2608480;22;20000;-90
2023/09/21 05:24:25;;;;;;;13.45;8.07;;;;;;;;;;2594316;22;20008;-91
2023/09/21 05:25:26;;;;;;;13.52;6.97;;;;;;;;;;2595023;22;20000;-92
2023/09/21 05:26:27;;;;;;;18.63;7.57;;;;;;;;;;2593917;22;20018;-90
2023/09/21 05:27:30;;;;;;;12.45;7.60;;;;;;;;;;2593559;22;20003;-90
2023/09/21 05:28:31;;;;;;;10.88;7.35;;;;;;;;;;2593382;22;20279;-92
2023/09/21 05:29:31;;;;;;;11.75;7.65;;;;;;;;;;2594043;22;20003;-92
2023/09/21 05:30:32;;;;;;;12.18;7.57;;;;;;;;;;2593467;22;20436;-92
2023/09/21 05:31:32;;;;;;;11.23;7.32;;;;;;;;;;2580898;23;20341;-91
2023/09/21 05:32:33;;;;;;;11.82;8.32;;;;;;;;;;2593951;22;19999;-91
2023/09/21 05:33:33;;;;;;;14.43;8.63;;;;;;;;;;2581168;23;20396;-92
2023/09/21 05:34:34;;;;;;;11.95;7.13;;;;;;;;;;2594130;22;20002;-91
2023/09/21 05:35:34;;;;;;;14.10;8.35;;;;;;;;;;2593521;22;20095;-91
2023/09/21 05:36:35;;;;;;;11.27;6.47;;;;;;;;;;2163670;22;10001567;-91
2023/09/21 05:37:35;;;;;;;13.20;8.38;;;;;;;;;;2594122;22;20245;-92
2023/09/21 05:38:37;;;;;;;12.20;7.55;;;;;;;;;;2594099;22;19987;-91
2023/09/21 05:39:38;;;;;;;14.68;8.85;;;;;;;;;;2598725;22;20045;-90
2023/09/21 05:40:40;;;;;;;12.43;7.15;;;;;;;;;;2618761;22;19991;-90
2023/09/21 05:41:41;;;;;;;11.13;7.68;;;;;;;;;;2602717;22;20159;-91
2023/09/21 05:42:44;;;;;;;11.27;8.77;;;;;;;;;;2593084;22;20020;-91
2023/09/21 05:43:44;;;;;;;10.68;8.48;;;;;;;;;;2593398;22;20015;-91
2023/09/21 05:44:45;;;;;;;13.20;7.35;;;;;;;;;;2593527;22;19985;-91
2023/09/21 05:45:46;;;;;;;10.55;7.85;;;;;;;;;;2593729;22;19988;-91
2023/09/21 05:46:47;;;;;;;11.50;8.38;;;;;;;;;;2593516;22;20000;-91
2023/09/21 05:47:47;;;;;;;8.80;7.70;;;;;;;;;;2593607;22;20019;-91
2023/09/21 05:48:48;;;;;;;11.23;7.50;;;;;;;;;;2606444;22;19995;-91
2023/09/21 05:49:49;;;;;;;11.55;8.25;;;;;;;;;;2611661;22;20398;-91
2023/09/21 05:50:49;;;;;;;14.80;8.45;;;;;;;;;;2594558;22;19996;-91
2023/09/21 05:51:53;;;;;;;15.75;7.63;;;;;;;;;;2581541;23;20000;-91
2023/09/21 05:52:54;;;;;;;11.55;8.88;;;;;;;;;;2594307;22;20461;-90
2023/09/21 05:53:55;;;;;;;14.52;9.30;;;;;;;;;;2596831;22;20010;-91
2023/09/21 05:54:55;;;;;;;13.52;8.73;;;;;;;;;;2593758;22;20014;-91
2023/09/21 05:55:57;;;;;;;15.25;8.77;;;;;;;;;;2596466;22;20038;-90
2023/09/21 05:56:58;;;;;;;13.75;8.43;;;;;;;;;;2593838;22;20003;-91
2023/09/21 05:57:58;;;;;;;16.45;8.40;;;;;;;;;;2594308;22;20082;-91
2023/09/21 05:59:04;;;;;;;16.38;9.20;;;;;;;;;;2596530;22;20007;-91
2023/09/21 06:00:07;;;;;;;15.55;9.07;;;;;;;;;;2594194;22;19999;-91
2023/09/21 06:01:07;;;;;;;13.55;8.50;;;;;;;;;;2581833;22;20393;-91
2023/09/21 06:02:13;;;;;;;11.82;8.25;;;;;;;;;;2594015;22;19995;-91
2023/09/21 06:03:13;;;;;;;15.32;9.30;;;;;;;;;;2596573;22;20349;-91
2023/09/21 06:04:18;;;;;;;11.70;7.90;;;;;;;;;;2609162;22;20026;-90
2023/09/21 06:05:19;;;;;;;13.13;9.35;;;;;;;;;;2608518;22;19995;-91
2023/09/21 06:06:20;;;;;;;14.45;9.40;;;;;;;;;;2608750;22;19995;-91
2023/09/21 06:07:21;;;;;;;11.10;7.78;;;;;;;;;;2608649;22;19999;-90